LIPF

Details ICAO LIPF
Name Ferrara
Region Italy
Timezone Europe/Rome (UTC+1.0)
Plans Departing 10
Arriving 5
Stats Elevation 21 ft / 6 m (AMSL)
Location 44.815548° 11.613928°
Runways 2
Magnetic Variation 2.996° E
Sunrise 2017-12-12 06:43:19 UTC / 2017-12-12 07:43:19 Local
Sunset 2017-12-12 15:34:04 UTC / 2017-12-12 16:34:04 Local
Advertisement - Login to hide

Runways

ID Width Length Bearing (true) Bearing (mag) Surface Threshold Offset Overrun Length
09L 98 ft / 30 m 2,626 ft / 801 m 90.00° 87.00° Asphalt 0 ft / 0 m 0 ft / 0 m
09R 197 ft / 60 m 2,955 ft / 901 m 90.00° 87.00° Dirt 0 ft / 0 m 0 ft / 0 m
27L 197 ft / 60 m 2,955 ft / 901 m 270.00° 267.00° Dirt 0 ft / 0 m 0 ft / 0 m
27R 98 ft / 30 m 2,626 ft / 801 m 270.00° 267.00° Asphalt 0 ft / 0 m 0 ft / 0 m

Map

Weather


0- 5 10 15 20 25 30 35+ Temperature / ° C

Clouds and Precipitation
Forecast for 2017-12-12 18:00 UTC. Updated an hour ago

Ground ~20,000 ft ~40,000 ft Winds

METAR

LIPF 121355Z 32002KT 9999 BKN080 07/04 Q1010 RMK BKN VIS MIN 9999

TAF

Not found
Warning: Do not use this data for real-world aviation or navigation. No guarantee of current accuracy is given.